createdAt,value
2023-03-29T00:32:15.741Z,419
2023-03-29T00:52:22.863Z,421
2023-03-29T01:12:15.722Z,416
2023-03-29T01:32:29.869Z,419
2023-03-29T01:52:15.914Z,419
2023-03-29T02:12:15.980Z,421
2023-03-29T02:32:15.987Z,421
2023-03-29T02:52:16.012Z,421
2023-03-29T03:32:16.135Z,420
2023-03-29T03:52:23.173Z,420
2023-03-29T04:12:16.338Z,420
2023-03-29T04:32:16.293Z,420
2023-03-29T04:52:16.189Z,417
2023-03-29T05:12:16.310Z,417
2023-03-29T05:32:16.344Z,415
2023-03-29T05:52:16.416Z,415
2023-03-29T06:12:16.419Z,417
2023-03-29T06:32:16.370Z,418
2023-03-29T06:52:16.516Z,416
2023-03-29T07:12:16.550Z,420
2023-03-29T07:32:16.673Z,420
2023-03-29T07:52:23.638Z,420
2023-03-29T08:12:16.676Z,417
2023-03-29T08:32:16.734Z,418
2023-03-29T08:52:16.745Z,419
2023-03-29T09:12:16.788Z,418
2023-03-29T09:32:16.827Z,421
2023-03-29T09:52:16.938Z,419
2023-03-29T11:12:16.949Z,423
2023-03-29T11:32:16.998Z,421
2023-03-29T11:52:16.948Z,415
2023-03-29T12:12:17.056Z,413
2023-03-29T12:32:17.094Z,414
2023-03-29T12:52:17.115Z,415
2023-03-29T13:32:17.138Z,413
2023-03-29T14:12:17.212Z,418
2023-03-29T14:52:17.238Z,416
2023-03-29T15:12:17.096Z,412
2023-03-29T15:32:24.342Z,414
2023-03-29T15:52:17.320Z,412
2023-03-29T16:12:17.369Z,413
2023-03-29T16:32:17.425Z,417
2023-03-29T16:52:17.438Z,412
2023-03-29T17:12:17.429Z,412
2023-03-29T17:32:24.452Z,416
2023-03-29T17:52:17.283Z,415
2023-03-29T18:12:17.532Z,411
2023-03-29T18:32:17.642Z,411
2023-03-29T18:52:17.568Z,413
2023-03-29T19:12:17.602Z,413
2023-03-29T19:32:17.647Z,420
2023-03-29T19:52:17.654Z,413
2023-03-29T20:12:17.687Z,412
2023-03-29T21:12:17.805Z,411
2023-03-29T21:32:17.626Z,418
2023-03-29T21:52:17.818Z,413
2023-03-29T22:12:17.881Z,414
2023-03-29T22:32:17.955Z,412
2023-03-29T23:32:17.975Z,413
